Time;durP1;ratioP1;P1;durP2;ratioP2;P2;SDS_P1;SDS_P2;PMS_P1;PMS_P2;Temp;Humidity;BMP_temperature;BMP_pressure;BME280_temperature;BME280_humidity;BME280_pressure;Samples;Min_cycle;Max_cycle;Signal;HPM_P1;HPM_P2
2023/01/28 00:00:26;;;;;;;;;;;;;;;-0.72;86.53;100434.06;4990116;28;19929;-64
2023/01/28 00:02:52;;;;;;;;;;;;;;;-0.74;86.21;100433.41;4990619;28;19929;-64
2023/01/28 00:05:18;;;;;;;;;;;;;;;-0.75;86.05;100428.22;5005801;28;19936;-64
2023/01/28 00:07:44;;;;;;;;;;;;;;;-0.77;86.12;100432.94;5010413;28;19929;-64
2023/01/28 00:10:09;;;;;;;;;;;;;;;-0.83;86.02;100425.63;4990865;28;20395;-63
2023/01/28 00:12:35;;;;;;;;;;;;;;;-0.85;86.02;100423.13;5006065;28;20028;-64
2023/01/28 00:15:03;;;;;;;;;;;;;;;-0.84;85.73;100429.34;4989659;28;20040;-66
2023/01/28 00:17:29;;;;;;;;;;;;;;;-0.87;85.54;100425.97;4972204;28;19937;-66
2023/01/28 00:19:55;;;;;;;;;;;;;;;-0.91;85.25;100427.38;5006979;28;20088;-65
2023/01/28 00:22:21;;;;;;;;;;;;;;;-0.95;85.27;100430.59;5006240;28;19930;-66
2023/01/28 00:24:47;;;;;;;;;;;;;;;-0.93;85.09;100436.66;5003285;28;20479;-64
2023/01/28 00:27:12;;;;;;;;;;;;;;;-0.91;84.79;100431.94;5001611;28;20052;-66
2023/01/28 00:29:38;;;;;;;;;;;;;;;-0.91;84.57;100429.25;4987498;28;20020;-65
2023/01/28 00:32:06;;;;;;;;;;;;;;;-1.00;84.26;100428.50;4987980;28;19929;-65
2023/01/28 00:34:32;;;;;;;;;;;;;;;-1.03;84.32;100426.16;5001143;28;19929;-66
2023/01/28 00:36:58;;;;;;;;;;;;;;;-1.07;84.19;100427.53;5005042;28;19936;-66
2023/01/28 00:39:27;;;;;;;;;;;;;;;-1.12;83.98;100427.25;4974159;28;19929;-66
2023/01/28 00:41:54;;;;;;;;;;;;;;;-1.16;83.88;100435.69;5005762;28;20435;-65
2023/01/28 00:44:20;;;;;;;;;;;;;;;-1.20;83.78;100439.72;5003236;28;19964;-64
2023/01/28 00:46:46;;;;;;;;;;;;;;;-1.19;83.59;100444.06;4982534;28;19984;-64
2023/01/28 00:49:13;;;;;;;;;;;;;;;-1.22;83.27;100444.44;4984350;28;19999;-64
2023/01/28 00:51:40;;;;;;;;;;;;;;;-1.23;83.21;100440.09;4989390;28;19937;-66
2023/01/28 00:54:05;;;;;;;;;;;;;;;-1.23;83.31;100453.50;4988503;28;19930;-64
2023/01/28 00:56:32;;;;;;;;;;;;;;;-1.24;83.03;100446.47;5003890;28;19929;-64
2023/01/28 00:58:58;;;;;;;;;;;;;;;-1.29;82.84;100451.56;4989728;28;19960;-64
2023/01/28 01:01:24;;;;;;;;;;;;;;;-1.30;82.77;100458.75;4986705;28;20356;-64
2023/01/28 01:03:56;;;;;;;;;;;;;;;-1.35;82.48;100449.59;4989301;28;19929;-63
2023/01/28 01:06:24;;;;;;;;;;;;;;;-1.38;82.79;100449.94;4982890;28;20044;-64
2023/01/28 01:08:49;;;;;;;;;;;;;;;-1.37;82.57;100452.47;4966466;28;20376;-64
2023/01/28 01:11:16;;;;;;;;;;;;;;;-1.34;82.37;100446.72;4987289;28;20474;-64
2023/01/28 01:13:42;;;;;;;;;;;;;;;-1.37;82.42;100447.09;4987199;28;20294;-64
2023/01/28 01:16:09;;;;;;;;;;;;;;;-1.34;82.33;100448.56;4987328;28;19930;-66
2023/01/28 01:18:35;;;;;;;;;;;;;;;-1.31;81.80;100451.72;5002637;28;20246;-65
2023/01/28 01:21:01;;;;;;;;;;;;;;;-1.31;81.86;100451.72;5003863;28;20400;-66
2023/01/28 01:23:29;;;;;;;;;;;;;;;-1.29;81.67;100456.94;5003099;28;19992;-65
2023/01/28 01:25:55;;;;;;;;;;;;;;;-1.30;81.43;100453.41;4986868;28;19937;-65
2023/01/28 01:28:21;;;;;;;;;;;;;;;-1.28;81.21;100455.91;4996731;28;19929;-66
2023/01/28 01:30:47;;;;;;;;;;;;;;;-1.33;81.08;100453.75;5001153;28;19929;-66
2023/01/28 01:33:13;;;;;;;;;;;;;;;-1.36;81.40;100450.59;5003738;28;19937;-67
2023/01/28 01:35:39;;;;;;;;;;;;;;;-1.38;81.39;100445.44;4988594;28;19935;-66
2023/01/28 01:38:05;;;;;;;;;;;;;;;-1.40;81.32;100455.50;5004340;28;20028;-66
2023/01/28 01:40:32;;;;;;;;;;;;;;;-1.38;81.51;100452.63;5003696;28;20429;-65
2023/01/28 01:42:59;;;;;;;;;;;;;;;-1.36;81.55;100451.44;5002690;28;20762;-66
2023/01/28 01:45:25;;;;;;;;;;;;;;;-1.38;81.28;100444.59;5003710;28;19955;-64
2023/01/28 01:47:56;;;;;;;;;;;;;;;-1.41;81.48;100447.63;5003715;28;19929;-66
2023/01/28 01:50:25;;;;;;;;;;;;;;;-1.44;81.45;100438.94;4985391;28;19933;-66
2023/01/28 01:52:52;;;;;;;;;;;;;;;-1.44;81.09;100438.94;4998519;28;19936;-66
2023/01/28 01:55:23;;;;;;;;;;;;;;;-1.46;81.21;100440.97;4984113;28;19971;-64
2023/01/28 01:57:52;;;;;;;;;;;;;;;-1.51;81.24;100437.97;5002147;28;20379;-65
2023/01/28 02:00:18;;;;;;;;;;;;;;;-1.51;81.21;100440.66;4984443;28;19929;-65
2023/01/28 02:02:47;;;;;;;;;;;;;;;-1.54;81.21;100442.88;4995800;28;19949;-64
2023/01/28 02:05:15;;;;;;;;;;;;;;;-1.50;81.25;100444.19;5006079;28;19929;-65
2023/01/28 02:07:42;;;;;;;;;;;;;;;-1.48;81.46;100448.38;5007206;28;20026;-65
2023/01/28 02:10:09;;;;;;;;;;;;;;;-1.45;81.36;100445.31;5001946;28;20320;-65
2023/01/28 02:12:36;;;;;;;;;;;;;;;-1.40;81.15;100457.34;5003240;28;19940;-64
2023/01/28 02:15:05;;;;;;;;;;;;;;;-1.39;80.99;100450.97;4984257;28;19929;-65
2023/01/28 02:17:31;;;;;;;;;;;;;;;-1.41;80.99;100453.00;4995309;28;19929;-65
2023/01/28 02:19:58;;;;;;;;;;;;;;;-1.41;80.66;100458.38;4984001;28;19936;-64
2023/01/28 02:22:38;;;;;;;;;;;;;;;-1.48;80.84;100453.72;4998490;28;19941;-65
2023/01/28 02:25:18;;;;;;;;;;;;;;;-1.53;80.66;100455.28;4995079;28;19930;-65
2023/01/28 02:28:05;;;;;;;;;;;;;;;-1.73;81.14;100432.44;4985418;28;19940;-65
2023/01/28 02:30:33;;;;;;;;;;;;;;;-1.53;81.01;100458.78;4968771;28;20381;-64
2023/01/28 02:33:02;;;;;;;;;;;;;;;-1.55;80.80;100454.63;5001363;28;19977;-64
2023/01/28 02:35:33;;;;;;;;;;;;;;;-1.56;80.67;100459.13;4970074;28;19933;-64
2023/01/28 02:38:02;;;;;;;;;;;;;;;-1.57;80.59;100450.25;4989985;28;20375;-64
2023/01/28 02:40:31;;;;;;;;;;;;;;;-1.55;80.80;100460.00;5004863;28;20494;-64
2023/01/28 02:42:58;;;;;;;;;;;;;;;-1.53;80.71;100463.31;4991818;28;19976;-64
2023/01/28 02:47:56;;;;;;;;;;;;;;;-1.51;80.74;100464.78;4986010;28;19929;-64
2023/01/28 02:48:13;;;;;;;;;;;;;;;-1.54;80.49;100462.47;4994198;28;20024;-64
2023/01/28 02:50:45;;;;;;;;;;;;;;;-1.55;80.72;100460.00;5003483;28;20404;-64
2023/01/28 02:56:04;;;;;;;;;;;;;;;-1.62;80.53;100468.72;4968560;28;19929;-64
2023/01/28 02:58:35;;;;;;;;;;;;;;;-1.63;80.80;100471.59;4987277;28;19945;-64
2023/01/28 03:01:06;;;;;;;;;;;;;;;-1.60;80.72;100472.06;5002230;28;19936;-64
2023/01/28 03:03:35;;;;;;;;;;;;;;;-1.60;80.82;100473.94;5002179;28;20079;-64
2023/01/28 03:06:05;;;;;;;;;;;;;;;-1.64;80.67;100486.84;4983916;28;20036;-64
2023/01/28 03:39:36;;;;;;;;;;;;;;;-1.81;81.29;100485.28;5005977;28;20342;-65
2023/01/28 03:42:04;;;;;;;;;;;;;;;-1.81;81.34;100488.78;5002764;28;19930;-64
2023/01/28 03:47:17;;;;;;;;;;;;;;;-1.87;81.15;100490.34;4963619;28;19929;-64
2023/01/28 03:49:44;;;;;;;;;;;;;;;-1.87;81.11;100498.41;4986642;28;19933;-64
2023/01/28 03:52:10;;;;;;;;;;;;;;;-1.83;81.21;100495.34;4999975;28;19929;-64
2023/01/28 03:54:37;;;;;;;;;;;;;;;-1.81;81.14;100490.66;4984337;28;19929;-63
2023/01/28 03:57:04;;;;;;;;;;;;;;;-1.83;80.74;100498.03;4965185;28;20409;-64
2023/01/28 03:59:30;;;;;;;;;;;;;;;-1.85;80.84;100490.16;4981049;28;20028;-64
2023/01/28 04:01:56;;;;;;;;;;;;;;;-1.90;80.58;100485.31;4981797;28;20473;-64
2023/01/28 04:04:24;;;;;;;;;;;;;;;-1.94;80.80;100488.56;4987703;28;19929;-64
2023/01/28 04:06:51;;;;;;;;;;;;;;;-1.95;80.77;100482.34;4985821;28;19929;-64
2023/01/28 04:09:23;;;;;;;;;;;;;;;-1.90;80.47;100485.31;4985767;28;19936;-64
2023/01/28 04:12:15;;;;;;;;;;;;;;;-1.89;80.30;100496.88;4981663;28;20424;-64
2023/01/28 04:14:47;;;;;;;;;;;;;;;-1.94;80.21;100492.06;4985780;28;20463;-64
2023/01/28 04:17:20;;;;;;;;;;;;;;;-1.94;80.32;100499.28;5004610;28;19969;-65
2023/01/28 04:19:47;;;;;;;;;;;;;;;-1.96;80.07;100491.38;4988262;28;20376;-65
2023/01/28 04:22:14;;;;;;;;;;;;;;;-1.91;80.02;100489.00;5004797;28;19929;-65
2023/01/28 04:24:41;;;;;;;;;;;;;;;-1.88;79.61;100495.88;4986585;28;20409;-64
2023/01/28 04:27:07;;;;;;;;;;;;;;;-1.89;79.31;100494.22;5001130;28;19969;-64
2023/01/28 04:29:33;;;;;;;;;;;;;;;-1.94;79.46;100494.72;4984071;28;20007;-64
2023/01/28 04:32:19;;;;;;;;;;;;;;;-1.93;79.24;100493.72;4975183;28;20312;-64
2023/01/28 04:35:06;;;;;;;;;;;;;;;-1.97;78.80;100483.50;4984580;28;20252;-64
2023/01/28 04:37:52;;;;;;;;;;;;;;;-1.96;78.64;100486.03;5007338;28;19929;-64
2023/01/28 04:40:37;;;;;;;;;;;;;;;-1.98;78.05;100488.06;4985769;28;19930;-64
2023/01/28 04:43:09;;;;;;;;;;;;;;;-2.01;78.18;100493.78;4984158;28;19969;-64
2023/01/28 04:46:07;;;;;;;;;;;;;;;-2.05;77.98;100492.44;4991192;28;19929;-65
2023/01/28 04:48:52;;;;;;;;;;;;;;;-2.06;77.92;100496.97;5004795;28;19930;-65
2023/01/28 04:51:38;;;;;;;;;;;;;;;-2.06;77.87;100496.13;4985920;28;20316;-65
2023/01/28 04:54:22;;;;;;;;;;;;;;;-2.06;77.62;100498.81;5004324;28;19937;-64
2023/01/28 04:56:48;;;;;;;;;;;;;;;-2.11;77.47;100498.50;4973739;28;19929;-64
2023/01/28 04:59:14;;;;;;;;;;;;;;;-2.11;77.42;100495.81;5004100;28;20348;-64
2023/01/28 05:01:39;;;;;;;;;;;;;;;-2.12;77.48;100496.84;4988336;28;20070;-64
2023/01/28 05:04:06;;;;;;;;;;;;;;;-2.14;77.48;100505.88;4975296;28;19929;-64
2023/01/28 05:06:36;;;;;;;;;;;;;;;-2.09;77.26;100509.88;4970110;28;20408;-63
2023/01/28 05:09:09;;;;;;;;;;;;;;;-2.09;77.13;100512.56;4985929;28;19930;-63
2023/01/28 05:11:35;;;;;;;;;;;;;;;-2.11;77.09;100512.72;4986977;28;19929;-64
2023/01/28 05:14:03;;;;;;;;;;;;;;;-2.15;76.92;100514.94;4987094;28;20390;-64
2023/01/28 05:16:37;;;;;;;;;;;;;;;-2.22;77.24;100513.94;4984728;28;19929;-64
2023/01/28 05:19:03;;;;;;;;;;;;;;;-2.22;77.15;100515.81;5000814;28;19937;-65
2023/01/28 05:21:34;;;;;;;;;;;;;;;-2.18;76.98;100520.66;4988972;28;19929;-66
2023/01/28 05:24:04;;;;;;;;;;;;;;;-2.21;77.01;100520.16;4986486;28;20329;-67
2023/01/28 05:26:31;;;;;;;;;;;;;;;-2.19;76.96;100523.47;4972069;28;19930;-65
2023/01/28 05:28:57;;;;;;;;;;;;;;;-2.19;76.65;100535.03;5004663;28;19929;-65
2023/01/28 05:31:23;;;;;;;;;;;;;;;-2.20;76.77;100522.63;4965293;28;20393;-66
2023/01/28 05:33:51;;;;;;;;;;;;;;;-2.20;76.43;100527.19;5002029;28;19930;-65
2023/01/28 05:36:17;;;;;;;;;;;;;;;-2.22;76.47;100529.19;4969192;28;20303;-65
2023/01/28 05:38:43;;;;;;;;;;;;;;;-2.22;76.54;100532.69;4985753;28;19933;-66
2023/01/28 05:41:09;;;;;;;;;;;;;;;-2.21;76.42;100529.00;5003979;28;20060;-66
2023/01/28 05:43:37;;;;;;;;;;;;;;;-2.19;76.52;100520.81;4986453;28;20432;-65
2023/01/28 05:46:14;;;;;;;;;;;;;;;-2.25;76.24;100521.50;4985025;28;19929;-65
2023/01/28 05:48:58;;;;;;;;;;;;;;;-2.30;76.46;100525.53;5002849;28;19929;-65
2023/01/28 05:51:50;;;;;;;;;;;;;;;-2.33;76.44;100525.88;5006315;28;19929;-65
2023/01/28 05:54:19;;;;;;;;;;;;;;;-2.35;76.59;100525.22;4986705;28;19936;-64
2023/01/28 05:56:46;;;;;;;;;;;;;;;-2.40;76.75;100522.22;4967061;28;19930;-65
2023/01/28 05:59:14;;;;;;;;;;;;;;;-2.44;76.83;100532.44;4980781;28;19929;-65
2023/01/28 06:01:42;;;;;;;;;;;;;;;-2.40;76.98;100529.41;4988225;28;19929;-65
2023/01/28 06:04:07;;;;;;;;;;;;;;;-2.37;76.93;100529.06;4989161;28;19937;-65
2023/01/28 06:06:33;;;;;;;;;;;;;;;-2.35;76.82;100535.94;4971129;28;19929;-66
2023/01/28 06:09:01;;;;;;;;;;;;;;;-2.34;76.54;100534.91;4982865;28;19929;-65
2023/01/28 06:11:29;;;;;;;;;;;;;;;-2.41;76.52;100536.63;4985868;28;20012;-64
2023/01/28 06:13:59;;;;;;;;;;;;;;;-2.47;76.87;100535.47;5003577;28;19968;-64
2023/01/28 06:16:35;;;;;;;;;;;;;;;-2.34;76.77;100544.78;4985609;28;19934;-64
2023/01/28 06:19:10;;;;;;;;;;;;;;;-2.35;76.41;100545.78;4985507;28;19929;-64
2023/01/28 06:21:37;;;;;;;;;;;;;;;-2.36;76.55;100544.97;5000540;28;19974;-63
2023/01/28 06:24:03;;;;;;;;;;;;;;;-2.35;76.12;100549.31;4986716;28;19935;-64
2023/01/28 06:26:29;;;;;;;;;;;;;;;-2.38;76.32;100552.34;4987449;28;19952;-65
2023/01/28 06:28:55;;;;;;;;;;;;;;;-2.47;76.16;100553.34;4970357;28;20431;-65
2023/01/28 06:31:21;;;;;;;;;;;;;;;-2.48;76.32;100547.19;5006467;28;20036;-65
2023/01/28 06:33:49;;;;;;;;;;;;;;;-2.50;76.23;100559.06;5000470;28;19933;-65
2023/01/28 06:36:14;;;;;;;;;;;;;;;-2.57;76.26;100553.53;4984734;28;19933;-65
2023/01/28 06:38:42;;;;;;;;;;;;;;;-2.63;76.27;100559.59;4986633;28;19929;-65
2023/01/28 06:41:08;;;;;;;;;;;;;;;-2.68;76.00;100552.06;4985703;28;19991;-65
2023/01/28 06:43:34;;;;;;;;;;;;;;;-2.69;76.02;100557.56;5003643;28;19930;-65
2023/01/28 06:46:00;;;;;;;;;;;;;;;-2.69;75.67;100555.75;4984333;28;20079;-65
2023/01/28 06:48:26;;;;;;;;;;;;;;;-2.76;75.83;100558.25;5003467;28;19939;-65
2023/01/28 06:50:53;;;;;;;;;;;;;;;-2.82;76.03;100560.78;4985598;28;20056;-65
2023/01/28 06:53:19;;;;;;;;;;;;;;;-2.85;76.20;100564.59;4984081;28;19936;-65
2023/01/28 06:55:45;;;;;;;;;;;;;;;-2.80;76.36;100564.13;4986496;28;20531;-65
2023/01/28 06:58:11;;;;;;;;;;;;;;;-2.69;76.56;100568.28;5002601;28;19930;-65
2023/01/28 07:00:37;;;;;;;;;;;;;;;-2.62;76.26;100572.78;5002588;28;19929;-65
2023/01/28 07:03:03;;;;;;;;;;;;;;;-2.60;76.25;100564.59;5001736;28;20347;-64
2023/01/28 07:05:28;;;;;;;;;;;;;;;-2.57;76.14;100572.28;4998697;28;19968;-64
2023/01/28 07:07:55;;;;;;;;;;;;;;;-2.61;76.11;100569.09;5002465;28;20388;-64
2023/01/28 07:10:21;;;;;;;;;;;;;;;-2.65;76.26;100572.31;4999214;28;20317;-64
2023/01/28 07:12:47;;;;;;;;;;;;;;;-2.71;75.89;100574.66;4984307;28;19936;-64
2023/01/28 07:15:14;;;;;;;;;;;;;;;-2.75;75.76;100567.97;4998211;28;19929;-65
2023/01/28 07:17:40;;;;;;;;;;;;;;;-2.76;75.54;100571.66;4966943;28;19929;-65
2023/01/28 07:20:06;;;;;;;;;;;;;;;-2.74;75.53;100572.31;5003842;28;19930;-65
2023/01/28 07:22:32;;;;;;;;;;;;;;;-2.73;75.75;100579.34;5002738;28;20574;-66
2023/01/28 07:25:00;;;;;;;;;;;;;;;-2.73;75.36;100573.97;4983822;28;19930;-65
2023/01/28 07:27:25;;;;;;;;;;;;;;;-2.66;75.37;100578.66;4983162;28;19929;-64
2023/01/28 07:29:51;;;;;;;;;;;;;;;-2.71;75.04;100571.16;4999528;28;20007;-64
2023/01/28 07:32:17;;;;;;;;;;;;;;;-2.68;75.12;100577.97;5003271;28;19936;-65
2023/01/28 07:34:43;;;;;;;;;;;;;;;-2.65;75.17;100578.50;5003017;28;19937;-66
2023/01/28 07:37:09;;;;;;;;;;;;;;;-2.56;74.99;100579.31;5001997;28;19934;-65
2023/01/28 07:39:34;;;;;;;;;;;;;;;-2.55;75.09;100577.50;4984813;28;19930;-65
2023/01/28 07:42:02;;;;;;;;;;;;;;;-2.50;74.79;100570.59;5003564;28;20438;-64
2023/01/28 07:44:35;;;;;;;;;;;;;;;-2.45;74.75;100578.97;4971324;28;19944;-64
2023/01/28 07:47:01;;;;;;;;;;;;;;;-2.41;74.56;100563.41;4969737;28;19936;-64
2023/01/28 07:49:27;;;;;;;;;;;;;;;-2.35;74.31;100569.91;5001992;28;19929;-65
2023/01/28 07:51:53;;;;;;;;;;;;;;;-2.35;74.08;100559.19;5003563;28;20124;-68
2023/01/28 07:54:18;;;;;;;;;;;;;;;-2.29;74.31;100564.69;5004268;28;19929;-65
2023/01/28 07:56:44;;;;;;;;;;;;;;;-2.22;73.61;100567.53;5006731;28;19979;-65
2023/01/28 07:59:12;;;;;;;;;;;;;;;-2.26;73.82;100566.22;4971746;28;19933;-65
2023/01/28 08:01:37;;;;;;;;;;;;;;;-2.23;73.49;100562.34;5005015;28;19957;-65
2023/01/28 08:04:03;;;;;;;;;;;;;;;-2.15;73.39;100567.69;4984227;28;19980;-65
2023/01/28 08:06:29;;;;;;;;;;;;;;;-2.08;72.88;100565.16;4999135;28;19971;-65
2023/01/28 08:08:55;;;;;;;;;;;;;;;-2.07;72.71;100564.13;4982713;28;19929;-65
2023/01/28 08:11:22;;;;;;;;;;;;;;;-2.06;72.69;100566.66;4988096;28;19930;-66
2023/01/28 08:13:47;;;;;;;;;;;;;;;-2.02;72.49;100561.78;4971642;28;19936;-65
2023/01/28 08:16:15;;;;;;;;;;;;;;;-1.97;72.52;100564.78;5005398;28;20028;-65
2023/01/28 08:18:40;;;;;;;;;;;;;;;-1.93;72.36;100565.28;4985245;28;20012;-64
2023/01/28 08:21:06;;;;;;;;;;;;;;;-1.93;71.93;100560.72;5004533;28;20031;-64
2023/01/28 08:23:35;;;;;;;;;;;;;;;-1.88;71.94;100562.91;4638303;28;10000623;-64
2023/01/28 08:26:01;;;;;;;;;;;;;;;-1.76;71.64;100558.84;4659800;28;10000232;-64
2023/01/28 08:28:27;;;;;;;;;;;;;;;-1.73;71.21;100555.78;5004091;28;20424;-65
2023/01/28 08:30:52;;;;;;;;;;;;;;;-1.79;71.23;100569.91;4984851;28;19987;-64
2023/01/28 08:33:20;;;;;;;;;;;;;;;-1.83;71.17;100562.38;4978597;28;19930;-64
2023/01/28 08:35:45;;;;;;;;;;;;;;;-1.87;71.52;100562.75;4996783;28;19929;-65
2023/01/28 08:38:12;;;;;;;;;;;;;;;-1.83;71.57;100565.06;4996751;28;20418;-65
2023/01/28 08:40:38;;;;;;;;;;;;;;;-1.79;71.02;100564.53;5000615;28;19937;-65
2023/01/28 08:43:04;;;;;;;;;;;;;;;-1.76;70.88;100571.38;5002405;28;20036;-65
2023/01/28 08:45:30;;;;;;;;;;;;;;;-1.74;70.93;100564.84;4981991;28;20457;-65
2023/01/28 08:47:57;;;;;;;;;;;;;;;-1.70;70.63;100559.97;5001554;28;19929;-65
2023/01/28 08:50:25;;;;;;;;;;;;;;;-1.66;70.76;100561.28;5002595;28;19933;-65
2023/01/28 08:52:54;;;;;;;;;;;;;;;-1.64;70.55;100559.25;5004704;28;19930;-64
2023/01/28 08:55:20;;;;;;;;;;;;;;;-1.55;70.33;100552.00;4984551;28;20438;-65
2023/01/28 08:57:45;;;;;;;;;;;;;;;-1.54;70.30;100553.69;4979552;28;20381;-65
2023/01/28 09:00:12;;;;;;;;;;;;;;;-1.55;70.23;100546.66;4964879;28;19929;-64
2023/01/28 09:02:38;;;;;;;;;;;;;;;-1.49;70.13;100561.19;5001925;28;19969;-64
2023/01/28 09:05:05;;;;;;;;;;;;;;;-1.55;70.24;100546.66;4962025;28;19930;-64
2023/01/28 09:07:34;;;;;;;;;;;;;;;-1.41;70.11;100552.28;4996883;28;20364;-66
2023/01/28 09:10:04;;;;;;;;;;;;;;;-1.31;69.62;100552.88;5005218;28;19930;-67
2023/01/28 09:12:34;;;;;;;;;;;;;;;-1.34;69.39;100553.22;4979018;28;19929;-65
2023/01/28 09:15:00;;;;;;;;;;;;;;;-1.25;69.69;100551.31;5000128;28;19929;-65
2023/01/28 09:17:26;;;;;;;;;;;;;;;-1.24;69.24;100551.16;4973334;28;19978;-64
2023/01/28 09:19:51;;;;;;;;;;;;;;;-1.26;68.95;100546.97;5000457;28;19929;-64
2023/01/28 09:22:17;;;;;;;;;;;;;;;-1.34;69.29;100535.28;5006968;28;19936;-64
2023/01/28 09:24:44;;;;;;;;;;;;;;;-1.36;69.57;100539.16;4987874;28;20028;-64
2023/01/28 09:27:10;;;;;;;;;;;;;;;-1.31;69.50;100540.28;4987458;28;20024;-64
2023/01/28 09:29:37;;;;;;;;;;;;;;;-1.29;69.24;100545.50;5007215;28;20044;-64
2023/01/28 09:32:03;;;;;;;;;;;;;;;-1.26;69.05;100534.38;4998864;28;19929;-64
2023/01/28 09:34:29;;;;;;;;;;;;;;;-1.19;69.19;100538.00;5003198;28;19936;-64
2023/01/28 09:36:56;;;;;;;;;;;;;;;-1.20;69.23;100538.22;5001025;28;19929;-64
2023/01/28 09:39:21;;;;;;;;;;;;;;;-1.22;69.31;100535.69;5001855;28;20410;-64
2023/01/28 09:41:55;;;;;;;;;;;;;;;-1.24;69.30;100539.59;4988963;28;19929;-64
2023/01/28 09:44:32;;;;;;;;;;;;;;;-1.23;69.17;100541.25;4996386;28;20315;-65
2023/01/28 09:47:00;;;;;;;;;;;;;;;-1.30;69.34;100523.16;5006244;28;19929;-66
2023/01/28 09:49:32;;;;;;;;;;;;;;;-1.24;68.90;100537.72;4967589;28;20012;-64
2023/01/28 09:51:58;;;;;;;;;;;;;;;-1.33;69.15;100531.59;4982875;28;19930;-64
2023/01/28 09:54:28;;;;;;;;;;;;;;;-1.28;69.19;100525.69;4984768;28;20401;-64
2023/01/28 09:57:04;;;;;;;;;;;;;;;-1.23;69.20;100522.47;4984773;28;19937;-64
2023/01/28 09:59:31;;;;;;;;;;;;;;;-1.38;69.00;100523.25;4964502;28;19929;-65
2023/01/28 10:02:01;;;;;;;;;;;;;;;-1.44;69.33;100526.63;4965836;28;19933;-65
2023/01/28 10:04:33;;;;;;;;;;;;;;;-1.39;69.19;100524.25;4983019;28;20417;-65
2023/01/28 10:07:10;;;;;;;;;;;;;;;-1.29;69.05;100516.78;4985152;28;19969;-64
2023/01/28 10:09:41;;;;;;;;;;;;;;;-1.28;68.72;100523.00;4978886;28;20361;-68
2023/01/28 10:12:18;;;;;;;;;;;;;;;-1.34;68.73;100516.50;4985561;28;20317;-65
2023/01/28 10:14:49;;;;;;;;;;;;;;;-1.37;68.93;100516.88;4981449;28;19929;-65
2023/01/28 10:17:19;;;;;;;;;;;;;;;-1.36;68.99;100515.00;4985354;28;19934;-65
2023/01/28 10:19:47;;;;;;;;;;;;;;;-1.35;69.26;100517.50;4980451;28;19937;-64
2023/01/28 10:22:15;;;;;;;;;;;;;;;-1.25;69.07;100511.91;4985580;28;20040;-64
2023/01/28 10:24:45;;;;;;;;;;;;;;;-1.29;69.29;100505.25;4984777;28;19936;-65
2023/01/28 10:27:13;;;;;;;;;;;;;;;-1.27;68.87;100505.88;4985289;28;19968;-64
2023/01/28 10:29:44;;;;;;;;;;;;;;;-1.20;68.40;100500.63;4981789;28;19961;-64
2023/01/28 10:32:16;;;;;;;;;;;;;;;-1.18;68.50;100495.91;4978626;28;19930;-64
2023/01/28 10:34:42;;;;;;;;;;;;;;;-1.17;68.60;100503.81;4981891;28;19929;-64
2023/01/28 10:37:09;;;;;;;;;;;;;;;-1.19;68.87;100496.94;4985364;28;19929;-64
2023/01/28 10:39:34;;;;;;;;;;;;;;;-1.22;68.90;100487.38;4981082;28;19940;-64
2023/01/28 10:42:00;;;;;;;;;;;;;;;-1.17;68.72;100490.38;4987639;28;20056;-64
2023/01/28 10:44:30;;;;;;;;;;;;;;;-1.08;68.71;100491.16;4985119;28;19930;-65
2023/01/28 10:47:00;;;;;;;;;;;;;;;-1.10;68.61;100493.16;4984546;28;20036;-65
2023/01/28 10:49:26;;;;;;;;;;;;;;;-1.12;68.59;100487.13;4981855;28;20044;-64
2023/01/28 10:51:52;;;;;;;;;;;;;;;-1.11;68.73;100483.44;4987262;28;20393;-64
2023/01/28 10:54:19;;;;;;;;;;;;;;;-1.03;68.87;100480.69;4982188;28;19980;-64
2023/01/28 10:56:46;;;;;;;;;;;;;;;-0.95;68.57;100485.16;4987077;28;20024;-64
2023/01/28 10:59:18;;;;;;;;;;;;;;;-0.94;68.77;100478.75;4983434;28;19965;-65
2023/01/28 11:01:45;;;;;;;;;;;;;;;-0.91;68.70;100478.38;4983372;28;20337;-64
2023/01/28 11:04:18;;;;;;;;;;;;;;;-0.91;68.49;100474.88;4986801;28;19930;-64
2023/01/28 11:06:51;;;;;;;;;;;;;;;-0.89;68.58;100475.53;4983090;28;19938;-65
2023/01/28 11:09:20;;;;;;;;;;;;;;;-0.92;68.15;100471.34;4994270;28;19933;-64
2023/01/28 11:11:46;;;;;;;;;;;;;;;-1.02;68.60;100466.25;4977706;28;19929;-65
2023/01/28 11:14:18;;;;;;;;;;;;;;;-1.00;68.56;100468.75;4982370;28;19984;-65
2023/01/28 11:16:44;;;;;;;;;;;;;;;-1.00;68.64;100466.06;4966934;28;19930;-64
2023/01/28 11:19:10;;;;;;;;;;;;;;;-1.03;68.76;100469.94;4982677;28;19952;-65
2023/01/28 11:21:37;;;;;;;;;;;;;;;-1.03;68.76;100459.22;4976698;28;19980;-64
2023/01/28 11:24:05;;;;;;;;;;;;;;;-1.04;68.83;100468.28;4979461;28;19929;-64
2023/01/28 11:26:32;;;;;;;;;;;;;;;-0.97;69.01;100454.97;4984494;28;20436;-64
2023/01/28 11:28:58;;;;;;;;;;;;;;;-0.97;68.69;100463.03;4634131;28;10000008;-64
2023/01/28 11:31:25;;;;;;;;;;;;;;;-0.98;68.67;100460.50;4963613;28;19965;-64
2023/01/28 11:33:52;;;;;;;;;;;;;;;-1.01;68.97;100459.03;4967018;28;19930;-64
2023/01/28 11:36:19;;;;;;;;;;;;;;;-1.02;68.90;100460.03;4967245;28;19930;-64
2023/01/28 11:38:52;;;;;;;;;;;;;;;-0.97;69.05;100454.97;4983376;28;20424;-66
2023/01/28 11:41:18;;;;;;;;;;;;;;;-0.92;68.84;100457.94;4970488;28;19930;-65
2023/01/28 11:43:46;;;;;;;;;;;;;;;-0.94;68.77;100457.28;4976708;28;20024;-64
2023/01/28 11:46:20;;;;;;;;;;;;;;;-1.00;68.90;100450.78;4984440;28;20405;-64
2023/01/28 11:48:54;;;;;;;;;;;;;;;-1.00;68.99;100447.28;4990185;28;20024;-66
2023/01/28 11:51:29;;;;;;;;;;;;;;;-1.00;68.88;100445.41;5000085;28;19936;-64
2023/01/28 11:54:06;;;;;;;;;;;;;;;-0.92;68.54;100446.38;5004471;28;19933;-64
2023/01/28 11:56:48;;;;;;;;;;;;;;;-1.00;68.85;100437.38;4975319;28;19972;-64
2023/01/28 11:59:26;;;;;;;;;;;;;;;-1.08;68.79;100434.78;5008465;28;20420;-64
2023/01/28 12:01:56;;;;;;;;;;;;;;;-1.18;68.99;100420.78;5006358;28;19929;-64
2023/01/28 12:04:25;;;;;;;;;;;;;;;-1.16;69.26;100421.41;5005824;28;20302;-63
2023/01/28 12:07:03;;;;;;;;;;;;;;;-1.07;69.25;100425.69;4998557;28;20084;-64
2023/01/28 12:09:34;;;;;;;;;;;;;;;-1.03;69.15;100412.72;4987967;28;20456;-65
2023/01/28 12:12:10;;;;;;;;;;;;;;;-0.95;69.17;100409.13;4993389;28;19980;-65
2023/01/28 12:14:42;;;;;;;;;;;;;;;-0.83;68.89;100410.34;4975087;28;20454;-65
2023/01/28 12:17:14;;;;;;;;;;;;;;;-0.78;68.43;100409.78;4989633;28;19930;-65
2023/01/28 12:19:45;;;;;;;;;;;;;;;-0.78;68.63;100410.66;4956662;28;19929;-65
2023/01/28 12:22:26;;;;;;;;;;;;;;;-0.87;68.63;100414.41;4988232;28;19991;-65
2023/01/28 12:24:59;;;;;;;;;;;;;;;-0.94;69.08;100408.09;4976579;28;19933;-66
2023/01/28 12:27:32;;;;;;;;;;;;;;;-0.94;69.23;100416.16;4993577;28;20044;-65
2023/01/28 12:30:03;;;;;;;;;;;;;;;-0.93;68.98;100410.63;4998089;28;19975;-63
2023/01/28 12:32:42;;;;;;;;;;;;;;;-0.93;69.11;100416.00;4984509;28;19929;-63
2023/01/28 12:35:20;;;;;;;;;;;;;;;-0.98;69.25;100407.66;4987522;28;20092;-64
2023/01/28 12:37:56;;;;;;;;;;;;;;;-1.04;69.28;100409.22;4999315;28;20015;-64
2023/01/28 12:40:36;;;;;;;;;;;;;;;-1.04;69.48;100395.81;5005578;28;19930;-63
2023/01/28 12:43:08;;;;;;;;;;;;;;;-1.11;69.72;100392.16;4969105;28;19936;-63
2023/01/28 12:45:39;;;;;;;;;;;;;;;-1.16;69.86;100400.78;4956202;28;20007;-66
2023/01/28 12:48:08;;;;;;;;;;;;;;;-1.15;69.89;100396.25;5007199;28;19979;-66
2023/01/28 12:50:36;;;;;;;;;;;;;;;-1.10;69.82;100393.00;5002609;28;19940;-65
2023/01/28 12:53:08;;;;;;;;;;;;;;;-1.15;69.61;100394.41;5007995;28;20401;-66
2023/01/28 12:55:38;;;;;;;;;;;;;;;-1.19;70.09;100389.56;4999567;28;19929;-66
2023/01/28 12:58:06;;;;;;;;;;;;;;;-1.17;70.01;100395.59;5002701;28;20262;-66
2023/01/28 13:00:33;;;;;;;;;;;;;;;-1.22;70.02;100392.63;5008285;28;19930;-65
2023/01/28 13:03:06;;;;;;;;;;;;;;;-1.32;69.90;100387.53;5008070;28;20360;-63
2023/01/28 13:05:35;;;;;;;;;;;;;;;-1.37;70.15;100390.75;5008466;28;19937;-63
2023/01/28 13:08:04;;;;;;;;;;;;;;;-1.45;70.28;100391.66;4997830;28;19941;-63
2023/01/28 13:10:35;;;;;;;;;;;;;;;-1.44;70.70;100389.78;5003774;28;19984;-63
2023/01/28 13:13:02;;;;;;;;;;;;;;;-1.45;70.62;100388.13;4973817;28;19953;-64
2023/01/28 13:15:30;;;;;;;;;;;;;;;-1.49;70.53;100392.19;5004166;28;20758;-61
2023/01/28 13:17:56;;;;;;;;;;;;;;;-1.55;70.77;100385.69;4989063;28;19933;-62
2023/01/28 13:20:34;;;;;;;;;;;;;;;-1.57;71.10;100390.41;5007369;28;19944;-64